Time;durP1;ratioP1;P1;durP2;ratioP2;P2;SDS_P1;SDS_P2;PMS_P1;PMS_P2;Temp;Humidity;BMP_temperature;BMP_pressure;BME280_temperature;BME280_humidity;BME280_pressure;Samples;Min_cycle;Max_cycle;Signal;HPM_P1;HPM_P2
2023/01/23 00:01:33;;;;;;;21.07;10.90;;;;;;;;;;5087624;28;20566;-78
2023/01/23 00:03:59;;;;;;;15.93;10.40;;;;;;;;;;5108734;28;20181;-78
2023/01/23 00:06:25;;;;;;;21.30;10.73;;;;;;;;;;5108578;28;20207;-78
2023/01/23 00:08:50;;;;;;;21.80;10.33;;;;;;;;;;5107369;28;20182;-78
2023/01/23 00:11:17;;;;;;;16.27;10.13;;;;;;;;;;5105552;28;20178;-78
2023/01/23 00:13:42;;;;;;;16.37;9.53;;;;;;;;;;5105767;28;20219;-78
2023/01/23 00:16:10;;;;;;;18.50;10.63;;;;;;;;;;5105771;28;20587;-78
2023/01/23 00:18:35;;;;;;;15.77;9.67;;;;;;;;;;5104502;28;20203;-78
2023/01/23 00:21:07;;;;;;;14.97;9.87;;;;;;;;;;5103278;28;20607;-78
2023/01/23 00:23:33;;;;;;;17.53;9.40;;;;;;;;;;5105981;28;20187;-78
2023/01/23 00:26:05;;;;;;;19.53;9.80;;;;;;;;;;5105188;28;20186;-78
2023/01/23 00:28:30;;;;;;;14.27;8.70;;;;;;;;;;5104910;28;20536;-77
2023/01/23 00:31:05;;;;;;;15.97;9.47;;;;;;;;;;5106403;28;20203;-78
2023/01/23 00:33:31;;;;;;;20.63;10.57;;;;;;;;;;5106470;28;20240;-78
2023/01/23 00:35:56;;;;;;;19.80;10.07;;;;;;;;;;5106687;28;20187;-78
2023/01/23 00:38:21;;;;;;;15.90;10.13;;;;;;;;;;5105815;28;20204;-78
2023/01/23 00:40:46;;;;;;;17.63;9.37;;;;;;;;;;5086476;28;20203;-78
2023/01/23 00:43:12;;;;;;;14.40;9.67;;;;;;;;;;5105910;28;20219;-78
2023/01/23 00:45:37;;;;;;;18.20;9.70;;;;;;;;;;5107444;28;20183;-78
2023/01/23 00:48:02;;;;;;;15.20;9.33;;;;;;;;;;5107984;28;20183;-78
2023/01/23 00:50:27;;;;;;;19.47;11.20;;;;;;;;;;5108246;28;20200;-78
2023/01/23 00:52:52;;;;;;;18.73;10.70;;;;;;;;;;5104377;28;20192;-78
2023/01/23 00:55:18;;;;;;;19.07;9.60;;;;;;;;;;5086687;28;20394;-78
2023/01/23 00:57:43;;;;;;;18.00;9.40;;;;;;;;;;5094611;28;20601;-79
2023/01/23 01:00:08;;;;;;;19.67;9.70;;;;;;;;;;5104700;28;20283;-78
2023/01/23 01:02:34;;;;;;;16.30;9.37;;;;;;;;;;5111933;28;20229;-78
2023/01/23 01:04:59;;;;;;;16.00;9.20;;;;;;;;;;5088025;28;20672;-78
2023/01/23 01:07:24;;;;;;;19.17;10.77;;;;;;;;;;5105803;28;20575;-78
2023/01/23 01:09:49;;;;;;;19.13;8.97;;;;;;;;;;5086429;28;20314;-78
2023/01/23 01:12:15;;;;;;;17.57;9.60;;;;;;;;;;5105849;28;20179;-78
2023/01/23 01:14:40;;;;;;;20.67;10.00;;;;;;;;;;5108214;28;20183;-78
2023/01/23 01:17:06;;;;;;;20.97;10.50;;;;;;;;;;5106358;28;20510;-78
2023/01/23 01:19:31;;;;;;;20.80;10.00;;;;;;;;;;5104471;28;20198;-78
2023/01/23 01:21:56;;;;;;;16.07;9.87;;;;;;;;;;5105745;28;20183;-78
2023/01/23 01:24:21;;;;;;;18.57;9.77;;;;;;;;;;5105284;28;20826;-77
2023/01/23 01:26:46;;;;;;;18.07;9.83;;;;;;;;;;5104177;28;20179;-79
2023/01/23 01:29:12;;;;;;;19.40;10.07;;;;;;;;;;5102742;28;20194;-77
2023/01/23 01:31:37;;;;;;;18.00;10.67;;;;;;;;;;5104466;28;20164;-77
2023/01/23 01:34:02;;;;;;;17.93;11.53;;;;;;;;;;5104566;28;20204;-77
2023/01/23 01:36:27;;;;;;;19.13;10.83;;;;;;;;;;5104335;28;20178;-77
2023/01/23 01:38:52;;;;;;;21.83;11.27;;;;;;;;;;5104386;28;20199;-78
2023/01/23 01:41:18;;;;;;;19.13;10.53;;;;;;;;;;5103918;28;20409;-77
2023/01/23 01:43:43;;;;;;;22.57;10.87;;;;;;;;;;5111222;28;20199;-78
2023/01/23 01:46:14;;;;;;;18.13;11.23;;;;;;;;;;5105496;28;20178;-77
2023/01/23 01:48:58;;;;;;;21.87;10.40;;;;;;;;;;5108513;28;20283;-78
2023/01/23 01:51:35;;;;;;;20.73;11.40;;;;;;;;;;5106657;28;20178;-77
2023/01/23 01:54:05;;;;;;;18.77;10.73;;;;;;;;;;5086086;28;20184;-77
2023/01/23 01:56:34;;;;;;;23.53;10.40;;;;;;;;;;5105894;28;20172;-76
2023/01/23 01:59:00;;;;;;;19.10;10.33;;;;;;;;;;5108535;28;20203;-76
2023/01/23 02:01:25;;;;;;;18.03;10.80;;;;;;;;;;5096323;28;20195;-76
2023/01/23 02:03:52;;;;;;;21.53;11.10;;;;;;;;;;5087275;28;20577;-76
2023/01/23 02:06:17;;;;;;;19.60;11.07;;;;;;;;;;5079712;28;20176;-77
2023/01/23 02:09:02;;;;;;;19.93;10.17;;;;;;;;;;5110666;28;20254;-76
2023/01/23 02:11:27;;;;;;;19.70;11.13;;;;;;;;;;5083837;28;20278;-77
2023/01/23 02:13:55;;;;;;;22.83;10.87;;;;;;;;;;5110518;28;20312;-76
2023/01/23 02:16:23;;;;;;;21.47;10.40;;;;;;;;;;5085285;28;20539;-77
2023/01/23 02:18:52;;;;;;;18.97;11.17;;;;;;;;;;5098674;28;20294;-75
2023/01/23 02:21:20;;;;;;;19.47;11.63;;;;;;;;;;5113609;28;20208;-77
2023/01/23 02:23:45;;;;;;;26.00;12.10;;;;;;;;;;5095167;28;20704;-76
2023/01/23 02:26:12;;;;;;;20.53;12.30;;;;;;;;;;5086727;28;20266;-76
2023/01/23 02:28:39;;;;;;;19.53;10.60;;;;;;;;;;5100366;28;20177;-75
2023/01/23 02:31:05;;;;;;;22.13;11.23;;;;;;;;;;5091991;28;20175;-76
2023/01/23 02:33:30;;;;;;;25.37;12.73;;;;;;;;;;5087222;28;20178;-77
2023/01/23 02:35:55;;;;;;;22.20;10.70;;;;;;;;;;5107578;28;20180;-77
2023/01/23 02:38:23;;;;;;;19.33;11.07;;;;;;;;;;5106444;28;20207;-77
2023/01/23 02:40:48;;;;;;;23.00;11.57;;;;;;;;;;5097986;28;20195;-77
2023/01/23 02:43:15;;;;;;;25.53;12.17;;;;;;;;;;5098583;28;20258;-76
2023/01/23 02:45:41;;;;;;;23.63;12.50;;;;;;;;;;5083146;28;20274;-76
2023/01/23 02:48:07;;;;;;;22.17;11.07;;;;;;;;;;5102509;28;20204;-76
2023/01/23 02:50:32;;;;;;;21.37;10.37;;;;;;;;;;5106494;28;20596;-76
2023/01/23 02:52:57;;;;;;;21.57;11.20;;;;;;;;;;5103565;28;20557;-76
2023/01/23 02:55:25;;;;;;;22.47;11.97;;;;;;;;;;5101675;28;20172;-76
2023/01/23 02:57:51;;;;;;;20.37;10.80;;;;;;;;;;5084598;28;20194;-76
2023/01/23 03:00:18;;;;;;;20.47;11.87;;;;;;;;;;5106490;28;20214;-76
2023/01/23 03:02:44;;;;;;;19.73;12.50;;;;;;;;;;5097746;28;20172;-76
2023/01/23 03:05:09;;;;;;;21.13;11.13;;;;;;;;;;5105638;28;20446;-76
2023/01/23 03:07:34;;;;;;;20.37;11.20;;;;;;;;;;5081620;28;20187;-76
2023/01/23 03:10:00;;;;;;;18.37;11.13;;;;;;;;;;5099533;28;20249;-76
2023/01/23 03:12:25;;;;;;;18.63;11.37;;;;;;;;;;5103893;28;20287;-76
2023/01/23 03:14:53;;;;;;;24.33;11.77;;;;;;;;;;5106762;28;20179;-76
2023/01/23 03:17:19;;;;;;;25.70;11.93;;;;;;;;;;5089636;28;20199;-76
2023/01/23 03:19:44;;;;;;;24.50;12.97;;;;;;;;;;5079421;28;20188;-76
2023/01/23 03:22:09;;;;;;;22.83;11.37;;;;;;;;;;5086199;28;20190;-76
2023/01/23 03:24:34;;;;;;;24.03;12.57;;;;;;;;;;5108284;28;20254;-76
2023/01/23 03:27:00;;;;;;;22.83;11.90;;;;;;;;;;5109251;28;20551;-76
2023/01/23 03:32:10;;;;;;;15.77;9.70;;;;;;;;;;5107468;28;20171;-76
2023/01/23 03:34:35;;;;;;;21.57;11.30;;;;;;;;;;5083696;28;20556;-76
2023/01/23 03:37:02;;;;;;;25.27;12.97;;;;;;;;;;5106369;28;21948;-76
2023/01/23 03:42:11;;;;;;;24.93;12.37;;;;;;;;;;5104099;28;20206;-76
2023/01/23 03:44:36;;;;;;;24.27;13.40;;;;;;;;;;5108591;28;20180;-76
2023/01/23 03:47:02;;;;;;;20.33;12.37;;;;;;;;;;5087669;28;20172;-76
2023/01/23 03:49:27;;;;;;;25.47;11.83;;;;;;;;;;5107335;28;20187;-76
2023/01/23 03:51:52;;;;;;;23.77;13.30;;;;;;;;;;5110423;28;20180;-77
2023/01/23 03:54:17;;;;;;;27.40;12.07;;;;;;;;;;5081024;28;20262;-77
2023/01/23 03:56:43;;;;;;;26.37;12.80;;;;;;;;;;5099028;28;20217;-77
2023/01/23 03:59:08;;;;;;;25.57;12.57;;;;;;;;;;5105120;28;20221;-76
2023/01/23 04:01:34;;;;;;;25.00;12.50;;;;;;;;;;5086215;28;20177;-77
2023/01/23 04:03:59;;;;;;;29.40;11.90;;;;;;;;;;5098751;28;20175;-78
2023/01/23 04:06:24;;;;;;;21.40;12.13;;;;;;;;;;5105877;28;20648;-77
2023/01/23 04:11:25;;;;;;;26.30;12.43;;;;;;;;;;5107114;28;20239;-73
2023/01/23 04:13:50;;;;;;;28.80;14.67;;;;;;;;;;5104102;28;20226;-73
2023/01/23 04:16:15;;;;;;;23.83;12.77;;;;;;;;;;5107366;28;20259;-75
2023/01/23 04:18:40;;;;;;;24.23;12.27;;;;;;;;;;5106774;28;20591;-74
2023/01/23 04:21:06;;;;;;;29.97;13.23;;;;;;;;;;5105873;28;20584;-73
2023/01/23 04:23:31;;;;;;;25.70;13.27;;;;;;;;;;5108364;28;20236;-73
2023/01/23 04:25:56;;;;;;;21.37;12.20;;;;;;;;;;5105283;28;20180;-73
2023/01/23 04:28:21;;;;;;;27.20;12.77;;;;;;;;;;5106329;28;20556;-73
2023/01/23 04:30:48;;;;;;;22.67;12.73;;;;;;;;;;5110965;28;20226;-73
2023/01/23 04:33:13;;;;;;;28.40;14.67;;;;;;;;;;5101263;28;20275;-73
2023/01/23 04:35:39;;;;;;;22.40;12.43;;;;;;;;;;5110487;28;20625;-73
2023/01/23 04:38:04;;;;;;;21.63;12.00;;;;;;;;;;5111819;28;20227;-75
2023/01/23 04:40:29;;;;;;;27.80;12.63;;;;;;;;;;5108995;28;20326;-74
2023/01/23 04:42:54;;;;;;;24.50;12.03;;;;;;;;;;5106153;28;20176;-73
2023/01/23 04:45:20;;;;;;;23.00;12.87;;;;;;;;;;5108408;28;20319;-73
2023/01/23 04:47:45;;;;;;;23.40;12.40;;;;;;;;;;5103621;28;20177;-73
2023/01/23 04:50:10;;;;;;;19.77;11.70;;;;;;;;;;5108639;28;20814;-73
2023/01/23 04:52:36;;;;;;;22.63;12.13;;;;;;;;;;5110781;28;20183;-72
2023/01/23 04:55:01;;;;;;;24.47;13.60;;;;;;;;;;5115269;28;20229;-73
2023/01/23 04:57:26;;;;;;;24.20;13.07;;;;;;;;;;5090577;28;20650;-74
2023/01/23 04:59:51;;;;;;;24.23;12.93;;;;;;;;;;5106307;28;20191;-74
2023/01/23 05:02:17;;;;;;;27.93;14.03;;;;;;;;;;5088965;28;20220;-74
2023/01/23 05:04:42;;;;;;;24.37;12.97;;;;;;;;;;5104032;28;20172;-74
2023/01/23 05:07:10;;;;;;;23.07;12.73;;;;;;;;;;5112875;28;20210;-75
2023/01/23 05:09:36;;;;;;;23.97;12.53;;;;;;;;;;5105892;28;20211;-75
2023/01/23 05:12:01;;;;;;;29.13;13.40;;;;;;;;;;5105476;28;20175;-75
2023/01/23 05:14:26;;;;;;;24.83;12.90;;;;;;;;;;5098959;28;20229;-75
2023/01/23 05:16:51;;;;;;;23.10;13.27;;;;;;;;;;5112390;28;20199;-75
2023/01/23 05:19:16;;;;;;;25.97;13.20;;;;;;;;;;5106544;28;20252;-72
2023/01/23 05:21:42;;;;;;;25.53;13.70;;;;;;;;;;5112864;28;20656;-72
2023/01/23 05:24:09;;;;;;;26.10;14.17;;;;;;;;;;5094400;28;20192;-75
2023/01/23 05:26:34;;;;;;;25.17;12.87;;;;;;;;;;5108640;28;20168;-73
2023/01/23 05:28:59;;;;;;;24.07;12.53;;;;;;;;;;5109464;28;20176;-73
2023/01/23 05:31:25;;;;;;;29.70;14.13;;;;;;;;;;5110295;28;20179;-73
2023/01/23 05:33:50;;;;;;;19.90;11.83;;;;;;;;;;5109890;28;20594;-73
2023/01/23 05:36:15;;;;;;;26.93;12.67;;;;;;;;;;5113003;28;20183;-75
2023/01/23 05:38:41;;;;;;;23.47;13.93;;;;;;;;;;5110242;28;20216;-73
2023/01/23 05:41:06;;;;;;;24.00;13.27;;;;;;;;;;5110994;28;20571;-73
2023/01/23 05:43:31;;;;;;;25.07;12.50;;;;;;;;;;5105410;28;20199;-73
2023/01/23 05:45:58;;;;;;;29.77;13.83;;;;;;;;;;5101596;28;20217;-73
2023/01/23 05:48:23;;;;;;;28.43;14.77;;;;;;;;;;5103714;28;20585;-73
2023/01/23 05:50:48;;;;;;;27.40;15.23;;;;;;;;;;5103446;28;20268;-74
2023/01/23 05:53:13;;;;;;;25.33;13.30;;;;;;;;;;5109124;28;20202;-73
2023/01/23 05:55:39;;;;;;;28.13;13.10;;;;;;;;;;5111883;28;20190;-73
2023/01/23 05:58:04;;;;;;;25.90;12.80;;;;;;;;;;5111359;28;20237;-73
2023/01/23 06:00:29;;;;;;;21.60;13.33;;;;;;;;;;5105492;28;20203;-73
2023/01/23 06:02:54;;;;;;;22.97;14.17;;;;;;;;;;5106181;28;20178;-73
2023/01/23 06:05:20;;;;;;;27.13;13.67;;;;;;;;;;5102621;28;20182;-73
2023/01/23 06:07:45;;;;;;;23.50;12.77;;;;;;;;;;5113140;28;20168;-74
2023/01/23 06:10:10;;;;;;;31.43;14.90;;;;;;;;;;5105859;28;20250;-73
2023/01/23 06:12:35;;;;;;;25.87;13.73;;;;;;;;;;5099839;28;20259;-73
2023/01/23 06:15:01;;;;;;;26.53;13.53;;;;;;;;;;5099317;28;20679;-74
2023/01/23 06:17:26;;;;;;;26.37;15.23;;;;;;;;;;5103815;28;20721;-73
2023/01/23 06:19:51;;;;;;;23.13;14.20;;;;;;;;;;5107901;28;20221;-74
2023/01/23 06:22:16;;;;;;;22.47;12.83;;;;;;;;;;5110604;28;20258;-74
2023/01/23 06:24:41;;;;;;;25.43;13.90;;;;;;;;;;5109279;28;20543;-73
2023/01/23 06:27:07;;;;;;;24.77;13.53;;;;;;;;;;5107306;28;20656;-74
2023/01/23 06:29:35;;;;;;;22.20;12.90;;;;;;;;;;5096525;28;20206;-72
2023/01/23 06:32:01;;;;;;;23.87;13.23;;;;;;;;;;5095568;28;20263;-74
2023/01/23 06:34:26;;;;;;;24.57;14.53;;;;;;;;;;5098342;28;20266;-74
2023/01/23 06:36:51;;;;;;;23.83;12.70;;;;;;;;;;5093943;28;20172;-73
2023/01/23 06:39:17;;;;;;;26.50;14.07;;;;;;;;;;5093328;28;20207;-74
2023/01/23 06:41:42;;;;;;;26.47;13.70;;;;;;;;;;5076817;28;20617;-73
2023/01/23 06:44:07;;;;;;;25.07;15.30;;;;;;;;;;5081280;28;20311;-73
2023/01/23 06:46:33;;;;;;;25.60;13.37;;;;;;;;;;5093499;28;20689;-73
2023/01/23 06:48:58;;;;;;;28.97;13.57;;;;;;;;;;5096209;28;20192;-72
2023/01/23 06:51:23;;;;;;;24.63;12.83;;;;;;;;;;5082106;28;20187;-73
2023/01/23 06:53:48;;;;;;;25.63;13.90;;;;;;;;;;5107210;28;20180;-73
2023/01/23 06:56:14;;;;;;;30.83;14.80;;;;;;;;;;5104117;28;20186;-73
2023/01/23 06:58:42;;;;;;;26.43;13.47;;;;;;;;;;5106058;28;20214;-73
2023/01/23 07:01:09;;;;;;;26.00;13.47;;;;;;;;;;5104157;28;20212;-73
2023/01/23 07:03:34;;;;;;;25.27;14.00;;;;;;;;;;5101835;28;20177;-73
2023/01/23 07:06:05;;;;;;;22.33;12.90;;;;;;;;;;5101334;28;20183;-74
2023/01/23 07:08:30;;;;;;;27.10;14.87;;;;;;;;;;5087979;28;20183;-73
2023/01/23 07:10:56;;;;;;;25.67;14.83;;;;;;;;;;5107995;28;20287;-74
2023/01/23 07:13:21;;;;;;;24.57;13.60;;;;;;;;;;5109833;28;20648;-74
2023/01/23 07:15:46;;;;;;;24.60;13.47;;;;;;;;;;5111050;28;20176;-73
2023/01/23 07:18:11;;;;;;;25.40;14.70;;;;;;;;;;5106158;28;20206;-74
2023/01/23 07:20:37;;;;;;;26.50;14.70;;;;;;;;;;5102590;28;20199;-73
2023/01/23 07:23:02;;;;;;;22.43;13.03;;;;;;;;;;5109731;28;20265;-73
2023/01/23 07:25:27;;;;;;;27.63;13.77;;;;;;;;;;5106818;28;20180;-73
2023/01/23 07:27:52;;;;;;;23.77;14.27;;;;;;;;;;5103383;28;20742;-73
2023/01/23 07:30:18;;;;;;;22.07;13.50;;;;;;;;;;5103845;28;21067;-73
2023/01/23 07:32:43;;;;;;;26.47;13.87;;;;;;;;;;5108495;28;20181;-73
2023/01/23 07:35:08;;;;;;;27.67;15.27;;;;;;;;;;5109755;28;20176;-73
2023/01/23 07:37:33;;;;;;;25.80;13.00;;;;;;;;;;5109522;28;20687;-72
2023/01/23 07:39:59;;;;;;;20.97;12.60;;;;;;;;;;5105589;28;20203;-73
2023/01/23 07:42:24;;;;;;;22.40;14.27;;;;;;;;;;5095183;28;20656;-73
2023/01/23 07:44:49;;;;;;;24.43;13.77;;;;;;;;;;5104360;28;20272;-72
2023/01/23 07:47:14;;;;;;;24.50;13.80;;;;;;;;;;5103893;28;20168;-72
2023/01/23 07:49:40;;;;;;;29.17;14.83;;;;;;;;;;5111415;28;20183;-73
2023/01/23 07:52:05;;;;;;;23.80;14.30;;;;;;;;;;5109335;28;20184;-72
2023/01/23 07:54:30;;;;;;;27.30;13.63;;;;;;;;;;5111744;28;20168;-73
2023/01/23 07:56:55;;;;;;;28.03;14.50;;;;;;;;;;5104130;28;20573;-73
2023/01/23 07:59:20;;;;;;;31.80;14.87;;;;;;;;;;5107398;28;20215;-74
2023/01/23 08:01:47;;;;;;;28.40;16.90;;;;;;;;;;5097398;28;20225;-73
2023/01/23 08:04:12;;;;;;;23.53;14.37;;;;;;;;;;5100044;28;20172;-73
2023/01/23 08:06:38;;;;;;;24.80;14.97;;;;;;;;;;5111058;28;20179;-73
2023/01/23 08:09:03;;;;;;;29.57;14.93;;;;;;;;;;5110418;28;20172;-74
2023/01/23 08:11:29;;;;;;;24.57;14.40;;;;;;;;;;5092969;28;20231;-72
2023/01/23 08:13:54;;;;;;;24.23;13.93;;;;;;;;;;5108435;28;20215;-73
2023/01/23 08:16:20;;;;;;;26.00;15.30;;;;;;;;;;5096476;28;20686;-73
2023/01/23 08:18:45;;;;;;;27.33;14.53;;;;;;;;;;5093504;28;20236;-74
2023/01/23 08:21:10;;;;;;;21.87;13.83;;;;;;;;;;5093946;28;20230;-73
2023/01/23 08:23:35;;;;;;;25.43;14.27;;;;;;;;;;5095883;28;20720;-73
2023/01/23 08:26:02;;;;;;;29.50;15.27;;;;;;;;;;5110732;28;20175;-74
2023/01/23 08:28:28;;;;;;;22.93;14.63;;;;;;;;;;5106301;28;20211;-73
2023/01/23 08:30:53;;;;;;;28.23;15.33;;;;;;;;;;5105920;28;20235;-73
2023/01/23 08:33:19;;;;;;;23.67;14.50;;;;;;;;;;5107718;28;20209;-73
2023/01/23 08:35:48;;;;;;;26.43;14.20;;;;;;;;;;5107475;28;20171;-73
2023/01/23 08:38:13;;;;;;;23.67;14.17;;;;;;;;;;5108285;28;20196;-74
2023/01/23 08:40:38;;;;;;;25.10;15.53;;;;;;;;;;5098862;28;20257;-72
2023/01/23 08:43:04;;;;;;;23.53;13.93;;;;;;;;;;5095553;28;20176;-73
2023/01/23 08:45:29;;;;;;;25.33;14.10;;;;;;;;;;5111748;28;20217;-73
2023/01/23 08:47:55;;;;;;;23.93;13.53;;;;;;;;;;5095215;28;20266;-74
2023/01/23 08:50:20;;;;;;;24.23;14.70;;;;;;;;;;5101194;28;20195;-73
2023/01/23 08:52:45;;;;;;;24.90;14.90;;;;;;;;;;5107240;28;20190;-74
2023/01/23 08:55:11;;;;;;;28.27;15.37;;;;;;;;;;5112025;28;20180;-73
2023/01/23 08:57:36;;;;;;;30.87;15.60;;;;;;;;;;5110511;28;20200;-73
2023/01/23 09:00:02;;;;;;;24.93;14.67;;;;;;;;;;5102317;28;20196;-74
2023/01/23 09:02:27;;;;;;;25.97;16.03;;;;;;;;;;5103340;28;20216;-74
2023/01/23 09:04:52;;;;;;;25.83;14.67;;;;;;;;;;5103341;28;20187;-73
2023/01/23 09:07:18;;;;;;;23.57;13.87;;;;;;;;;;5101258;28;21976;-74
2023/01/23 09:09:43;;;;;;;26.30;14.13;;;;;;;;;;5113572;28;20231;-73
2023/01/23 09:12:08;;;;;;;22.40;13.37;;;;;;;;;;5113812;28;20295;-73
2023/01/23 09:14:33;;;;;;;25.67;15.17;;;;;;;;;;5105507;28;20168;-73
2023/01/23 09:16:58;;;;;;;22.20;14.33;;;;;;;;;;5105956;28;20598;-73
2023/01/23 09:19:24;;;;;;;25.03;14.67;;;;;;;;;;5108766;28;20205;-73
2023/01/23 09:21:51;;;;;;;21.77;13.97;;;;;;;;;;5110031;28;20619;-73
2023/01/23 09:24:16;;;;;;;23.57;13.40;;;;;;;;;;5104407;28;20183;-73
2023/01/23 09:26:42;;;;;;;23.03;14.03;;;;;;;;;;5107732;28;20659;-74
2023/01/23 09:29:07;;;;;;;25.77;14.90;;;;;;;;;;5100098;28;20184;-73
2023/01/23 09:31:32;;;;;;;22.87;13.63;;;;;;;;;;5102873;28;20187;-74
2023/01/23 09:33:58;;;;;;;22.07;14.03;;;;;;;;;;5105250;28;20672;-73
2023/01/23 09:36:23;;;;;;;21.00;13.20;;;;;;;;;;5106528;28;20184;-73
2023/01/23 09:38:49;;;;;;;26.13;13.67;;;;;;;;;;5096751;28;20696;-73
2023/01/23 09:41:14;;;;;;;29.93;15.00;;;;;;;;;;5106717;28;20176;-73
2023/01/23 09:43:39;;;;;;;23.50;14.53;;;;;;;;;;5103899;28;20700;-73
2023/01/23 09:46:13;;;;;;;23.27;13.67;;;;;;;;;;5103743;28;20175;-74
2023/01/23 09:48:44;;;;;;;25.63;15.33;;;;;;;;;;5100639;28;20176;-72
2023/01/23 09:51:13;;;;;;;23.30;13.33;;;;;;;;;;5108840;28;20192;-73
2023/01/23 09:53:39;;;;;;;21.17;14.13;;;;;;;;;;5107882;28;20256;-73
2023/01/23 09:56:23;;;;;;;24.87;14.33;;;;;;;;;;5107374;28;20199;-73
2023/01/23 09:59:07;;;;;;;28.13;15.17;;;;;;;;;;5102694;28;20249;-74
2023/01/23 10:01:32;;;;;;;22.07;12.90;;;;;;;;;;5097953;28;20267;-73
2023/01/23 10:03:58;;;;;;;23.37;13.87;;;;;;;;;;5108004;28;20254;-73
2023/01/23 10:06:25;;;;;;;22.77;12.77;;;;;;;;;;5104936;28;20168;-73
2023/01/23 10:08:56;;;;;;;25.47;15.07;;;;;;;;;;5110049;28;20186;-73
2023/01/23 10:11:21;;;;;;;20.33;13.53;;;;;;;;;;5102000;22;20489;-79
2023/01/23 10:14:12;;;;;;;23.83;13.90;;;;;;;;;;5074130;28;20556;-79
2023/01/23 10:16:42;;;;;;;21.27;13.20;;;;;;;;;;5091533;28;20200;-79
2023/01/23 10:19:27;;;;;;;20.67;12.57;;;;;;;;;;5090097;28;20219;-79
2023/01/23 10:21:55;;;;;;;19.90;12.67;;;;;;;;;;5071382;28;20210;-79
2023/01/23 10:24:31;;;;;;;20.93;13.27;;;;;;;;;;5071976;28;20571;-79
2023/01/23 10:26:59;;;;;;;28.33;14.80;;;;;;;;;;5071662;28;20204;-78
2023/01/23 10:29:29;;;;;;;18.77;12.57;;;;;;;;;;5072663;28;20557;-79
2023/01/23 10:31:56;;;;;;;23.50;12.70;;;;;;;;;;5070539;28;20189;-79
2023/01/23 10:34:24;;;;;;;17.67;11.50;;;;;;;;;;5069722;28;20813;-78
2023/01/23 10:36:49;;;;;;;20.67;12.83;;;;;;;;;;5061491;28;20184;-78
2023/01/23 10:39:34;;;;;;;20.73;13.03;;;;;;;;;;5053781;28;20208;-78
2023/01/23 10:42:00;;;;;;;17.27;11.43;;;;;;;;;;5056752;28;20189;-77
2023/01/23 10:44:25;;;;;;;17.50;11.70;;;;;;;;;;5071021;28;20177;-78
2023/01/23 10:46:56;;;;;;;19.43;11.83;;;;;;;;;;5071878;28;20232;-78
2023/01/23 10:49:30;;;;;;;16.73;11.27;;;;;;;;;;5070673;28;20180;-79
2023/01/23 10:51:55;;;;;;;18.07;12.80;;;;;;;;;;5069495;28;20235;-79
2023/01/23 10:54:22;;;;;;;18.20;11.53;;;;;;;;;;5070480;28;20172;-78
2023/01/23 10:56:50;;;;;;;22.40;11.30;;;;;;;;;;5053241;28;20188;-79
2023/01/23 10:59:35;;;;;;;15.70;10.93;;;;;;;;;;5071515;28;20325;-78
2023/01/23 11:02:01;;;;;;;16.07;11.97;;;;;;;;;;5070048;28;20185;-79
2023/01/23 11:04:27;;;;;;;15.33;10.50;;;;;;;;;;5053945;28;20668;-78
2023/01/23 11:07:00;;;;;;;17.63;11.07;;;;;;;;;;5053801;28;20559;-79
2023/01/23 11:09:25;;;;;;;16.50;11.40;;;;;;;;;;5071245;28;20209;-77
2023/01/23 11:12:04;;;;;;;21.73;11.93;;;;;;;;;;5071081;28;20169;-80
2023/01/23 11:14:29;;;;;;;16.93;11.00;;;;;;;;;;5053036;28;20208;-77
2023/01/23 11:16:59;;;;;;;15.13;10.40;;;;;;;;;;5071506;28;20179;-80
2023/01/23 11:19:24;;;;;;;15.87;10.67;;;;;;;;;;5071248;28;20201;-78
2023/01/23 11:21:49;;;;;;;17.60;10.67;;;;;;;;;;5075828;28;20183;-77
2023/01/23 11:24:23;;;;;;;16.37;10.93;;;;;;;;;;5076084;28;20184;-77
2023/01/23 11:26:57;;;;;;;14.50;10.13;;;;;;;;;;5054918;28;20279;-77
2023/01/23 11:29:23;;;;;;;15.37;11.20;;;;;;;;;;5070375;28;20187;-78
2023/01/23 11:32:10;;;;;;;15.87;10.50;;;;;;;;;;5072280;28;20234;-78
2023/01/23 11:35:01;;;;;;;15.37;10.50;;;;;;;;;;5071077;28;20195;-77
2023/01/23 11:37:33;;;;;;;17.13;11.07;;;;;;;;;;5025121;28;20193;-77
2023/01/23 11:40:01;;;;;;;15.07;10.40;;;;;;;;;;5071551;28;20233;-79
2023/01/23 11:42:27;;;;;;;15.20;10.50;;;;;;;;;;5069727;28;20173;-79
2023/01/23 11:44:52;;;;;;;15.20;10.03;;;;;;;;;;5070907;28;20267;-77
2023/01/23 11:47:17;;;;;;;14.13;10.23;;;;;;;;;;5070883;28;20551;-78
2023/01/23 11:49:43;;;;;;;13.33;9.93;;;;;;;;;;5071514;28;20243;-78
2023/01/23 11:52:27;;;;;;;16.10;10.40;;;;;;;;;;5068206;28;20598;-78
2023/01/23 11:54:58;;;;;;;13.80;9.37;;;;;;;;;;5065190;28;20177;-78
2023/01/23 11:57:52;;;;;;;13.97;10.00;;;;;;;;;;5072259;28;20616;-77
2023/01/23 12:00:17;;;;;;;16.33;11.07;;;;;;;;;;5016493;28;20217;-78
2023/01/23 12:02:46;;;;;;;14.57;10.80;;;;;;;;;;5050456;28;20257;-78
2023/01/23 12:05:11;;;;;;;17.80;12.27;;;;;;;;;;5068290;28;20181;-79
2023/01/23 12:07:54;;;;;;;13.60;9.67;;;;;;;;;;5070605;28;20173;-79
2023/01/23 12:10:25;;;;;;;16.13;10.43;;;;;;;;;;5071195;28;20220;-79
2023/01/23 12:12:57;;;;;;;15.90;11.33;;;;;;;;;;5071397;28;20188;-79
2023/01/23 12:15:25;;;;;;;17.33;11.80;;;;;;;;;;5055170;28;20556;-79
2023/01/23 12:18:06;;;;;;;16.53;10.53;;;;;;;;;;5071024;28;20213;-79
2023/01/23 12:20:34;;;;;;;16.47;10.90;;;;;;;;;;5070236;28;20643;-79
2023/01/23 12:23:11;;;;;;;14.07;9.97;;;;;;;;;;5071203;28;20173;-79
2023/01/23 12:25:37;;;;;;;19.07;13.27;;;;;;;;;;5070635;28;20161;-79
2023/01/23 12:28:21;;;;;;;15.67;9.17;;;;;;;;;;5052923;28;20185;-79
2023/01/23 12:30:46;;;;;;;14.47;9.53;;;;;;;;;;5071389;28;20193;-79
2023/01/23 12:33:31;;;;;;;14.83;9.90;;;;;;;;;;5052852;28;20185;-79
2023/01/23 12:36:06;;;;;;;15.50;9.43;;;;;;;;;;5024998;28;20196;-79
2023/01/23 12:38:38;;;;;;;13.17;9.03;;;;;;;;;;5068141;28;20204;-79
2023/01/23 12:41:06;;;;;;;14.73;9.53;;;;;;;;;;5053559;28;20218;-79
2023/01/23 12:43:47;;;;;;;11.63;8.40;;;;;;;;;;5069574;28;20184;-79
2023/01/23 12:46:22;;;;;;;13.63;9.27;;;;;;;;;;5068538;28;20692;-79
2023/01/23 12:48:57;;;;;;;11.90;8.27;;;;;;;;;;5071118;28;20187;-78
2023/01/23 12:51:42;;;;;;;17.10;9.60;;;;;;;;;;5060176;28;20192;-78
2023/01/23 12:54:14;;;;;;;19.30;10.63;;;;;;;;;;5066189;28;20284;-79
2023/01/23 12:56:40;;;;;;;15.40;9.90;;;;;;;;;;5066000;28;20642;-80
2023/01/23 12:59:14;;;;;;;14.57;8.40;;;;;;;;;;5068997;28;20196;-79
2023/01/23 13:01:53;;;;;;;12.13;8.83;;;;;;;;;;5070230;28;20177;-80
2023/01/23 13:04:38;;;;;;;13.70;8.57;;;;;;;;;;5067910;28;20710;-80
2023/01/23 13:07:22;;;;;;;14.20;9.47;;;;;;;;;;5054612;28;20192;-79
2023/01/23 13:10:04;;;;;;;11.80;8.33;;;;;;;;;;5070429;28;20209;-79
2023/01/23 13:12:29;;;;;;;10.97;7.97;;;;;;;;;;5073269;28;20208;-79
2023/01/23 13:15:13;;;;;;;10.77;8.20;;;;;;;;;;5073146;28;20220;-80
2023/01/23 13:17:47;;;;;;;15.97;8.50;;;;;;;;;;5054308;28;20205;-80
2023/01/23 13:23:24;;;;;;;12.23;8.57;;;;;;;;;;5073822;28;20196;-79
2023/01/23 13:26:09;;;;;;;11.90;8.50;;;;;;;;;;5066477;28;20181;-79
2023/01/23 13:28:39;;;;;;;11.83;8.37;;;;;;;;;;5072665;28;20573;-79
2023/01/23 13:31:05;;;;;;;11.53;8.13;;;;;;;;;;5054874;28;20212;-79
2023/01/23 13:33:33;;;;;;;10.23;8.03;;;;;;;;;;5070850;28;20189;-79
2023/01/23 13:36:11;;;;;;;12.57;8.70;;;;;;;;;;5054923;28;20184;-79
2023/01/23 13:38:39;;;;;;;13.07;9.20;;;;;;;;;;5071344;28;20196;-79
2023/01/23 13:41:04;;;;;;;14.20;8.83;;;;;;;;;;5072836;28;20209;-79
2023/01/23 13:43:48;;;;;;;12.13;8.90;;;;;;;;;;5055980;28;20665;-80
2023/01/23 13:46:25;;;;;;;12.20;8.23;;;;;;;;;;5071474;28;20180;-80
2023/01/23 13:51:36;;;;;;;12.30;8.63;;;;;;;;;;5070164;28;20204;-79
2023/01/23 13:56:47;;;;;;;13.10;9.03;;;;;;;;;;5070253;28;20227;-79
2023/01/23 13:59:30;;;;;;;16.00;9.30;;;;;;;;;;5054145;28;20217;-79
2023/01/23 14:05:12;;;;;;;12.80;9.70;;;;;;;;;;5070493;28;20175;-79
2023/01/23 14:07:52;;;;;;;13.27;9.27;;;;;;;;;;5069497;28;20180;-79
2023/01/23 14:10:20;;;;;;;13.00;9.63;;;;;;;;;;5072507;28;20218;-79
2023/01/23 14:12:45;;;;;;;16.27;9.80;;;;;;;;;;5071838;28;20189;-79
2023/01/23 14:18:03;;;;;;;14.20;9.10;;;;;;;;;;5067996;28;20342;-79
2023/01/23 14:20:30;;;;;;;11.57;8.20;;;;;;;;;;5071479;28;20193;-79
2023/01/23 14:22:56;;;;;;;11.27;8.03;;;;;;;;;;5055992;28;20177;-79
2023/01/23 14:25:21;;;;;;;11.33;8.20;;;;;;;;;;5061604;28;20187;-79
2023/01/23 14:27:46;;;;;;;11.50;8.00;;;;;;;;;;5058639;28;20181;-79
2023/01/23 14:30:15;;;;;;;12.67;8.40;;;;;;;;;;5072878;28;20200;-78
2023/01/23 14:32:40;;;;;;;10.07;7.03;;;;;;;;;;5073254;28;20242;-78
2023/01/23 14:35:22;;;;;;;11.57;7.90;;;;;;;;;;5071929;28;20649;-78
2023/01/23 14:37:48;;;;;;;11.23;8.00;;;;;;;;;;5073444;28;20220;-79
2023/01/23 14:40:16;;;;;;;12.87;8.27;;;;;;;;;;5072597;28;20241;-79
2023/01/23 14:42:42;;;;;;;10.90;7.20;;;;;;;;;;5072160;28;20650;-78
2023/01/23 14:45:09;;;;;;;10.87;7.33;;;;;;;;;;5072227;28;20180;-80